^^
Saratoga-Weather Station Historical Data
Daily Summary for January 8, 2020 Units:  Both    English   Metric
Daily Weekly Monthly Yearly Custom
  High: Low: Average:
Temperature: 75.9 °F /  24.4 °C 46.2 °F /  7.9 °C 61.2 °F /  16.2 °C
Dew Point: 48.2 °F /  9 °C 38.1 °F /  3.4 °C 43.5 °F /  6.4 °C
Humidity: 88% 27% 57%
Wind Speed: 7mph /  11.3km/h - 1.1mph /  1.7km/h
Wind Gust: 9mph /  14.5km/h - -
Wind- - SE
Pressure: 30.3 in /  1025.4 hPa 30.2 in /  1021.0 hPa -
Precipitation: 0 in /  0.0 mm    
Historical Graphs
 
 
Tabular Data for January 8, 2020
Time Temperature Dew Point Pressure Wind Wind Speed Wind Gust Humidity Rainfall Rate (Hourly) solar
00:02 55.2 °F /  12.9 °C 42.8 °F /  6 °C 30.3in /  1025.4hPa Calm     63% 0in /  0.0mm 0 W/m2
00:07 55 °F /  12.8 °C 42.6 °F /  5.9 °C 30.3in /  1025.4hPa Calm   1mph /  1.6km/h 63% 0in /  0.0mm 0 W/m2
00:12 55.2 °F /  12.9 °C 42.8 °F /  6 °C 30.3in /  1025.4hPa Calm   3mph /  4.8km/h 63% 0in /  0.0mm 0 W/m2
00:17 55.8 °F /  13.2 °C 42.4 °F /  5.8 °C 30.3in /  1025.4hPa Calm     61% 0in /  0.0mm 0 W/m2
00:22 56.1 °F /  13.4 °C 43.3 °F /  6.3 °C 30.3in /  1025.4hPa Calm     62% 0in /  0.0mm 0 W/m2
00:28 55.9 °F /  13.3 °C 43.5 °F /  6.4 °C 30.3in /  1025.4hPa Calm     63% 0in /  0.0mm 0 W/m2
00:33 55.8 °F /  13.2 °C 43.3 °F /  6.3 °C 30.3in /  1025.4hPa Calm     63% 0in /  0.0mm 0 W/m2
00:38 55.6 °F /  13.1 °C 43.2 °F /  6.2 °C 30.3in /  1025.4hPa Calm     63% 0in /  0.0mm 0 W/m2
00:43 55.2 °F /  12.9 °C 43.3 °F /  6.3 °C 30.3in /  1025.4hPa Calm     64% 0in /  0.0mm 0 W/m2
00:48 55 °F /  12.8 °C 43.5 °F /  6.4 °C 30.3in /  1025.4hPa Calm     65% 0in /  0.0mm 0 W/m2
00:53 54.9 °F /  12.7 °C 43.7 °F /  6.5 °C 30.3in /  1025.4hPa Calm     66% 0in /  0.0mm 0 W/m2
00:58 54.7 °F /  12.6 °C 43.5 °F /  6.4 °C 30.3in /  1025.4hPa Calm     66% 0in /  0.0mm 0 W/m2
01:03 54.5 °F /  12.5 °C 43.3 °F /  6.3 °C 30.3in /  1025.4hPa SW 0.9mph /  1.4km/h 1mph /  1.6km/h 66% 0in /  0.0mm 0 W/m2
01:08 54.3 °F /  12.4 °C 43.2 °F /  6.2 °C 30.3in /  1025.4hPa Calm     66% 0in /  0.0mm 0 W/m2
01:13 54.3 °F /  12.4 °C 43.5 °F /  6.4 °C 30.3in /  1025.4hPa Calm     67% 0in /  0.0mm 0 W/m2
01:18 54.1 °F /  12.3 °C 43.3 °F /  6.3 °C 30.3in /  1025.4hPa SW 0.9mph /  1.4km/h 2mph /  3.2km/h 67% 0in /  0.0mm 0 W/m2
01:23 54.1 °F /  12.3 °C 43.3 °F /  6.3 °C 30.3in /  1025.4hPa SW 0.9mph /  1.4km/h 2mph /  3.2km/h 67% 0in /  0.0mm 0 W/m2
01:28 54.1 °F /  12.3 °C 43.3 °F /  6.3 °C 30.3in /  1025.4hPa SW 0.9mph /  1.4km/h 2mph /  3.2km/h 67% 0in /  0.0mm 0 W/m2
01:33 54.1 °F /  12.3 °C 43.3 °F /  6.3 °C 30.3in /  1025.4hPa SW 0.9mph /  1.4km/h 1mph /  1.6km/h 67% 0in /  0.0mm 0 W/m2
01:39 54.1 °F /  12.3 °C 43.9 °F /  6.6 °C 30.3in /  1025.4hPa SW 0.9mph /  1.4km/h 1mph /  1.6km/h 68% 0in /  0.0mm 0 W/m2
01:44 54.1 °F /  12.3 °C 43.3 °F /  6.3 °C 30.3in /  1025.4hPa SW 0.9mph /  1.4km/h 1mph /  1.6km/h 67% 0in /  0.0mm 0 W/m2
01:49 54.1 °F /  12.3 °C 43.9 °F /  6.6 °C 30.3in /  1025.4hPa SW 0.9mph /  1.4km/h 2mph /  3.2km/h 68% 0in /  0.0mm 0 W/m2
01:54 54 °F /  12.2 °C 43.7 °F /  6.5 °C 30.3in /  1025.4hPa Calm   1mph /  1.6km/h 68% 0in /  0.0mm 0 W/m2
01:59 54 °F /  12.2 °C 44.1 °F /  6.7 °C 30.3in /  1025.4hPa Calm   2mph /  3.2km/h 69% 0in /  0.0mm 0 W/m2
02:04 54 °F /  12.2 °C 44.1 °F /  6.7 °C 30.3in /  1025.4hPa SW 0.9mph /  1.4km/h 1mph /  1.6km/h 69% 0in /  0.0mm 0 W/m2
02:09 54 °F /  12.2 °C 44.4 °F /  6.9 °C 30.3in /  1025.4hPa Calm     70% 0in /  0.0mm 0 W/m2
02:14 54 °F /  12.2 °C 44.4 °F /  6.9 °C 30.3in /  1025.4hPa SW 0.9mph /  1.4km/h 1mph /  1.6km/h 70% 0in /  0.0mm 0 W/m2
02:19 54 °F /  12.2 °C 44.4 °F /  6.9 °C 30.3in /  1025.1hPa SW 0.9mph /  1.4km/h 1mph /  1.6km/h 70% 0in /  0.0mm 0 W/m2
02:24 54 °F /  12.2 °C 44.4 °F /  6.9 °C 30.3in /  1025.1hPa Calm     70% 0in /  0.0mm 0 W/m2
02:29 53.8 °F /  12.1 °C 44.6 °F /  7 °C 30.3in /  1025.1hPa Calm     71% 0in /  0.0mm 0 W/m2
02:34 53.6 °F /  12 °C 44.4 °F /  6.9 °C 30.3in /  1025.1hPa SW 0.9mph /  1.4km/h 1mph /  1.6km/h 71% 0in /  0.0mm 0 W/m2
02:39 53.4 °F /  11.9 °C 44.2 °F /  6.8 °C 30.3in /  1025.1hPa Calm     71% 0in /  0.0mm 0 W/m2
02:44 53.2 °F /  11.8 °C 44.4 °F /  6.9 °C 30.3in /  1025.1hPa Calm     72% 0in /  0.0mm 0 W/m2
02:49 53.1 °F /  11.7 °C 44.2 °F /  6.8 °C 30.3in /  1025.1hPa Calm     72% 0in /  0.0mm 0 W/m2
02:54 53.1 °F /  11.7 °C 44.6 °F /  7 °C 30.3in /  1025.1hPa Calm     73% 0in /  0.0mm 0 W/m2
02:59 53.1 °F /  11.7 °C 44.6 °F /  7 °C 30.3in /  1024.7hPa SW 0.9mph /  1.4km/h 1mph /  1.6km/h 73% 0in /  0.0mm 0 W/m2
03:04 52.9 °F /  11.6 °C 44.4 °F /  6.9 °C 30.3in /  1024.7hPa SW 2mph /  3.2km/h 2mph /  3.2km/h 73% 0in /  0.0mm 0 W/m2
03:09 52.7 °F /  11.5 °C 44.6 °F /  7 °C 30.3in /  1024.7hPa Calm   1mph /  1.6km/h 74% 0in /  0.0mm 0 W/m2
03:14 52.5 °F /  11.4 °C 44.1 °F /  6.7 °C 30.3in /  1024.7hPa Calm     73% 0in /  0.0mm 0 W/m2
03:19 52.3 °F /  11.3 °C 44.2 °F /  6.8 °C 30.3in /  1024.7hPa Calm     74% 0in /  0.0mm 0 W/m2
03:24 52.2 °F /  11.2 °C 44.4 °F /  6.9 °C 30.3in /  1024.7hPa Calm     75% 0in /  0.0mm 0 W/m2
03:29 52.2 °F /  11.2 °C 44.4 °F /  6.9 °C 30.3in /  1024.7hPa SW 2mph /  3.2km/h 2mph /  3.2km/h 75% 0in /  0.0mm 0 W/m2
03:34 52 °F /  11.1 °C 44.2 °F /  6.8 °C 30.3in /  1024.7hPa Calm   1mph /  1.6km/h 75% 0in /  0.0mm 0 W/m2
03:39 51.8 °F /  11 °C 44.4 °F /  6.9 °C 30.3in /  1024.7hPa SW 0.9mph /  1.4km/h 1mph /  1.6km/h 76% 0in /  0.0mm 0 W/m2
03:44 51.8 °F /  11 °C 44.4 °F /  6.9 °C 30.3in /  1024.7hPa Calm     76% 0in /  0.0mm 0 W/m2
03:49 51.8 °F /  11 °C 44.4 °F /  6.9 °C 30.3in /  1025.1hPa Calm   2mph /  3.2km/h 76% 0in /  0.0mm 0 W/m2
03:54 52 °F /  11.1 °C 44.6 °F /  7 °C 30.3in /  1024.7hPa Calm   1mph /  1.6km/h 76% 0in /  0.0mm 0 W/m2
03:59 51.8 °F /  11 °C 44.4 °F /  6.9 °C 30.3in /  1025.1hPa SW 0.9mph /  1.4km/h 2mph /  3.2km/h 76% 0in /  0.0mm 0 W/m2
04:04 51.6 °F /  10.9 °C 44.2 °F /  6.8 °C 30.3in /  1025.1hPa SW 0.9mph /  1.4km/h 1mph /  1.6km/h 76% 0in /  0.0mm 0 W/m2
04:09 51.4 °F /  10.8 °C 44.4 °F /  6.9 °C 30.3in /  1025.1hPa Calm   2mph /  3.2km/h 77% 0in /  0.0mm 0 W/m2
04:14 51.4 °F /  10.8 °C 44.4 °F /  6.9 °C 30.3in /  1024.7hPa SW 0.9mph /  1.4km/h 1mph /  1.6km/h 77% 0in /  0.0mm 0 W/m2
04:19 51.3 °F /  10.7 °C 44.6 °F /  7 °C 30.3in /  1024.7hPa Calm   1mph /  1.6km/h 78% 0in /  0.0mm 0 W/m2
04:24 51.3 °F /  10.7 °C 44.6 °F /  7 °C 30.3in /  1024.7hPa SW 0.9mph /  1.4km/h 2mph /  3.2km/h 78% 0in /  0.0mm 0 W/m2
04:29 51.1 °F /  10.6 °C 44.4 °F /  6.9 °C 30.3in /  1024.7hPa SW 0.9mph /  1.4km/h 1mph /  1.6km/h 78% 0in /  0.0mm 0 W/m2
04:34 50.9 °F /  10.5 °C 44.2 °F /  6.8 °C 30.3in /  1024.7hPa Calm     78% 0in /  0.0mm 0 W/m2
04:39 50.7 °F /  10.4 °C 44.1 °F /  6.7 °C 30.3in /  1024.7hPa Calm     78% 0in /  0.0mm 0 W/m2
04:44 50.5 °F /  10.3 °C 44.2 °F /  6.8 °C 30.3in /  1024.7hPa Calm     79% 0in /  0.0mm 0 W/m2
04:49 50.4 °F /  10.2 °C 44.1 °F /  6.7 °C 30.3in /  1024.4hPa Calm   1mph /  1.6km/h 79% 0in /  0.0mm 0 W/m2
04:55 50.2 °F /  10.1 °C 44.2 °F /  6.8 °C 30.3in /  1024.4hPa Calm     80% 0in /  0.0mm 0 W/m2
05:00 49.8 °F /  9.9 °C 43.9 °F /  6.6 °C 30.3in /  1024.4hPa Calm   1mph /  1.6km/h 80% 0in /  0.0mm 0 W/m2
05:05 49.6 °F /  9.8 °C 43.7 °F /  6.5 °C 30.3in /  1024.4hPa Calm     80% 0in /  0.0mm 0 W/m2
05:10 49.5 °F /  9.7 °C 43.9 °F /  6.6 °C 30.3in /  1024.4hPa Calm     81% 0in /  0.0mm 0 W/m2
05:15 49.3 °F /  9.6 °C 43.7 °F /  6.5 °C 30.3in /  1024.4hPa Calm     81% 0in /  0.0mm 0 W/m2
05:20 49.3 °F /  9.6 °C 44.1 °F /  6.7 °C 30.3in /  1024.4hPa Calm   1mph /  1.6km/h 82% 0in /  0.0mm 0 W/m2
05:25 49.1 °F /  9.5 °C 43.9 °F /  6.6 °C 30.3in /  1024.4hPa Calm     82% 0in /  0.0mm 0 W/m2
05:30 49.1 °F /  9.5 °C 43.9 °F /  6.6 °C 30.3in /  1024.4hPa Calm     82% 0in /  0.0mm 0 W/m2
05:35 48.9 °F /  9.4 °C 43.7 °F /  6.5 °C 30.3in /  1024.4hPa Calm     82% 0in /  0.0mm 0 W/m2
05:40 48.9 °F /  9.4 °C 43.7 °F /  6.5 °C 30.3in /  1024.4hPa Calm   1mph /  1.6km/h 82% 0in /  0.0mm 0 W/m2
05:45 48.9 °F /  9.4 °C 44.1 °F /  6.7 °C 30.3in /  1024.4hPa SW 0.9mph /  1.4km/h 2mph /  3.2km/h 83% 0in /  0.0mm 0 W/m2
05:50 48.9 °F /  9.4 °C 44.1 °F /  6.7 °C 30.3in /  1024.4hPa Calm     83% 0in /  0.0mm 0 W/m2
05:55 48.7 °F /  9.3 °C 43.9 °F /  6.6 °C 30.3in /  1024.4hPa Calm     83% 0in /  0.0mm 0 W/m2
06:00 48.7 °F /  9.3 °C 43.9 °F /  6.6 °C 30.3in /  1024.4hPa Calm     83% 0in /  0.0mm 0 W/m2
06:05 48.7 °F /  9.3 °C 43.5 °F /  6.4 °C 30.3in /  1024.4hPa Calm     82% 0in /  0.0mm 0 W/m2
06:10 48.6 °F /  9.2 °C 43.3 °F /  6.3 °C 30.3in /  1024.4hPa Calm     82% 0in /  0.0mm 0 W/m2
06:15 48.4 °F /  9.1 °C 43.5 °F /  6.4 °C 30.3in /  1024.4hPa Calm     83% 0in /  0.0mm 0 W/m2
06:20 48.2 °F /  9 °C 43.3 °F /  6.3 °C 30.3in /  1024.4hPa Calm     83% 0in /  0.0mm 0 W/m2
06:25 48 °F /  8.9 °C 43.2 °F /  6.2 °C 30.3in /  1024.4hPa Calm     83% 0in /  0.0mm 0 W/m2
06:30 48 °F /  8.9 °C 43.3 °F /  6.3 °C 30.3in /  1024.4hPa Calm     84% 0in /  0.0mm 0 W/m2
06:35 47.8 °F /  8.8 °C 43.2 °F /  6.2 °C 30.3in /  1024.4hPa Calm     84% 0in /  0.0mm 0 W/m2
06:40 47.7 °F /  8.7 °C 43 °F /  6.1 °C 30.3in /  1024.4hPa Calm     84% 0in /  0.0mm 0 W/m2
06:45 47.5 °F /  8.6 °C 42.8 °F /  6 °C 30.3in /  1024.4hPa Calm     84% 0in /  0.0mm 0 W/m2
06:50 47.1 °F /  8.4 °C 42.6 °F /  5.9 °C 30.3in /  1024.4hPa Calm     84% 0in /  0.0mm 0 W/m2
06:55 47.1 °F /  8.4 °C 42.8 °F /  6 °C 30.3in /  1024.4hPa Calm     85% 0in /  0.0mm 0 W/m2
07:00 46.9 °F /  8.3 °C 42.6 °F /  5.9 °C 30.3in /  1024.4hPa Calm     85% 0in /  0.0mm 5 W/m2
07:06 46.8 °F /  8.2 °C 42.4 °F /  5.8 °C 30.3in /  1024.4hPa Calm     85% 0in /  0.0mm 9 W/m2
07:11 46.8 °F /  8.2 °C 42.8 °F /  6 °C 30.3in /  1024.4hPa Calm     86% 0in /  0.0mm 12 W/m2
07:16 46.6 °F /  8.1 °C 42.6 °F /  5.9 °C 30.3in /  1024.4hPa Calm     86% 0in /  0.0mm 14 W/m2
07:21 46.6 °F /  8.1 °C 42.6 °F /  5.9 °C 30.3in /  1024.4hPa Calm     86% 0in /  0.0mm 18 W/m2
07:26 46.4 °F /  8 °C 42.4 °F /  5.8 °C 30.3in /  1024.4hPa Calm     86% 0in /  0.0mm 21 W/m2
07:31 46.2 °F /  7.9 °C 42.3 °F /  5.7 °C 30.3in /  1024.4hPa Calm     86% 0in /  0.0mm 25 W/m2
07:36 46.2 °F /  7.9 °C 42.6 °F /  5.9 °C 30.3in /  1024.4hPa Calm     87% 0in /  0.0mm 26 W/m2
07:41 46.2 °F /  7.9 °C 42.6 °F /  5.9 °C 30.3in /  1024.7hPa Calm     87% 0in /  0.0mm 30 W/m2
07:46 46.6 °F /  8.1 °C 43.2 °F /  6.2 °C 30.3in /  1024.4hPa Calm     88% 0in /  0.0mm 33 W/m2
07:51 46.9 °F /  8.3 °C 43.5 °F /  6.4 °C 30.3in /  1024.7hPa Calm     88% 0in /  0.0mm 35 W/m2
07:56 47.1 °F /  8.4 °C 43.7 °F /  6.5 °C 30.3in /  1024.7hPa Calm     88% 0in /  0.0mm 39 W/m2
08:01 47.5 °F /  8.6 °C 43.9 °F /  6.6 °C 30.3in /  1024.7hPa Calm     87% 0in /  0.0mm 40 W/m2
08:06 47.8 °F /  8.8 °C 44.2 °F /  6.8 °C 30.3in /  1024.7hPa ESE 2mph /  3.2km/h 2mph /  3.2km/h 87% 0in /  0.0mm 77 W/m2
08:11 48.6 °F /  9.2 °C 44.2 °F /  6.8 °C 30.3in /  1024.7hPa East 2mph /  3.2km/h 3mph /  4.8km/h 85% 0in /  0.0mm 123 W/m2
08:16 49.3 °F /  9.6 °C 44.4 °F /  6.9 °C 30.3in /  1024.7hPa East 2mph /  3.2km/h 3mph /  4.8km/h 83% 0in /  0.0mm 135 W/m2
08:21 49.6 °F /  9.8 °C 44.4 °F /  6.9 °C 30.3in /  1024.7hPa East 2mph /  3.2km/h 2mph /  3.2km/h 82% 0in /  0.0mm 148 W/m2
08:26 50.4 °F /  10.2 °C 44.4 °F /  6.9 °C 30.3in /  1024.7hPa East 0.9mph /  1.4km/h 2mph /  3.2km/h 80% 0in /  0.0mm 162 W/m2
08:31 50.7 °F /  10.4 °C 44.4 °F /  6.9 °C 30.3in /  1024.7hPa Calm     79% 0in /  0.0mm 174 W/m2
08:36 51.1 °F /  10.6 °C 44.8 °F /  7.1 °C 30.3in /  1024.7hPa Calm   2mph /  3.2km/h 79% 0in /  0.0mm 185 W/m2
08:41 51.6 °F /  10.9 °C 45 °F /  7.2 °C 30.3in /  1024.7hPa Calm     78% 0in /  0.0mm 200 W/m2
08:46 52.2 °F /  11.2 °C 45.1 °F /  7.3 °C 30.3in /  1024.7hPa Calm     77% 0in /  0.0mm 213 W/m2
08:51 52.5 °F /  11.4 °C 45.1 °F /  7.3 °C 30.3in /  1024.7hPa East 0.9mph /  1.4km/h 1mph /  1.6km/h 76% 0in /  0.0mm 225 W/m2
08:56 53.1 °F /  11.7 °C 45.3 °F /  7.4 °C 30.3in /  1024.7hPa Calm   1mph /  1.6km/h 75% 0in /  0.0mm 237 W/m2
09:01 53.4 °F /  11.9 °C 45.3 °F /  7.4 °C 30.3in /  1024.7hPa Calm     74% 0in /  0.0mm 251 W/m2
09:06 54 °F /  12.2 °C 45.5 °F /  7.5 °C 30.3in /  1024.7hPa Calm     73% 0in /  0.0mm 264 W/m2
09:11 54.5 °F /  12.5 °C 46 °F /  7.8 °C 30.3in /  1024.7hPa Calm     73% 0in /  0.0mm 278 W/m2
09:16 54.9 °F /  12.7 °C 46.4 °F /  8 °C 30.3in /  1024.7hPa Calm     73% 0in /  0.0mm 290 W/m2
09:21 55.6 °F /  13.1 °C 46.4 °F /  8 °C 30.3in /  1024.7hPa East 0.9mph /  1.4km/h 2mph /  3.2km/h 71% 0in /  0.0mm 302 W/m2
09:26 56.1 °F /  13.4 °C 46 °F /  7.8 °C 30.3in /  1024.7hPa Calm   2mph /  3.2km/h 69% 0in /  0.0mm 316 W/m2
09:31 56.7 °F /  13.7 °C 46.6 °F /  8.1 °C 30.3in /  1024.7hPa East 0.9mph /  1.4km/h 2mph /  3.2km/h 69% 0in /  0.0mm 329 W/m2
09:36 57 °F /  13.9 °C 45.9 °F /  7.7 °C 30.3in /  1024.7hPa East 0.9mph /  1.4km/h 3mph /  4.8km/h 66% 0in /  0.0mm 111 W/m2
09:41 57.6 °F /  14.2 °C 45.9 °F /  7.7 °C 30.3in /  1024.7hPa Calm   2mph /  3.2km/h 65% 0in /  0.0mm 116 W/m2
09:46 58.5 °F /  14.7 °C 46.8 °F /  8.2 °C 30.3in /  1024.7hPa Calm   2mph /  3.2km/h 65% 0in /  0.0mm 364 W/m2
09:51 59.2 °F /  15.1 °C 46.9 °F /  8.3 °C 30.3in /  1024.7hPa Calm   2mph /  3.2km/h 64% 0in /  0.0mm 378 W/m2
09:56 59.5 °F /  15.3 °C 46.9 °F /  8.3 °C 30.3in /  1024.7hPa ESE 2.9mph /  4.7km/h 4mph /  6.4km/h 63% 0in /  0.0mm 390 W/m2
10:01 60.3 °F /  15.7 °C 47.1 °F /  8.4 °C 30.3in /  1025.1hPa ENE 0.9mph /  1.4km/h 3mph /  4.8km/h 62% 0in /  0.0mm 401 W/m2
10:06 60.6 °F /  15.9 °C 47.5 °F /  8.6 °C 30.3in /  1024.7hPa ENE 2mph /  3.2km/h 4mph /  6.4km/h 62% 0in /  0.0mm 413 W/m2
10:11 61 °F /  16.1 °C 46.9 °F /  8.3 °C 30.3in /  1024.7hPa Calm   3mph /  4.8km/h 60% 0in /  0.0mm 424 W/m2
10:16 60.6 °F /  15.9 °C 46.6 °F /  8.1 °C 30.3in /  1024.7hPa ENE 2mph /  3.2km/h 3mph /  4.8km/h 60% 0in /  0.0mm 434 W/m2
10:21 60.8 °F /  16 °C 47.3 °F /  8.5 °C 30.3in /  1024.7hPa ENE 0.9mph /  1.4km/h 2mph /  3.2km/h 61% 0in /  0.0mm 445 W/m2
10:26 61.3 °F /  16.3 °C 47.3 °F /  8.5 °C 30.3in /  1024.7hPa ESE 2mph /  3.2km/h 3mph /  4.8km/h 60% 0in /  0.0mm 459 W/m2
10:31 62.1 °F /  16.7 °C 47.5 °F /  8.6 °C 30.3in /  1024.7hPa ENE 2mph /  3.2km/h 4mph /  6.4km/h 59% 0in /  0.0mm 469 W/m2
10:37 62.4 °F /  16.9 °C 46.9 °F /  8.3 °C 30.3in /  1024.7hPa Calm   3mph /  4.8km/h 57% 0in /  0.0mm 478 W/m2
10:42 63 °F /  17.2 °C 46.6 °F /  8.1 °C 30.3in /  1024.7hPa NE 2.9mph /  4.7km/h 6mph /  9.7km/h 55% 0in /  0.0mm 492 W/m2
10:47 63 °F /  17.2 °C 46.9 °F /  8.3 °C 30.3in /  1024.7hPa East 2.9mph /  4.7km/h 4mph /  6.4km/h 56% 0in /  0.0mm 499 W/m2
10:52 63.3 °F /  17.4 °C 47.3 °F /  8.5 °C 30.3in /  1024.7hPa ESE 0.9mph /  1.4km/h 3mph /  4.8km/h 56% 0in /  0.0mm 508 W/m2
10:57 63.9 °F /  17.7 °C 47.3 °F /  8.5 °C 30.3in /  1024.7hPa East 4mph /  6.4km/h 4mph /  6.4km/h 55% 0in /  0.0mm 519 W/m2
11:02 64 °F /  17.8 °C 47.5 °F /  8.6 °C 30.3in /  1024.7hPa SE 2.9mph /  4.7km/h 6mph /  9.7km/h 55% 0in /  0.0mm 529 W/m2
11:07 64.4 °F /  18 °C 47.8 °F /  8.8 °C 30.3in /  1024.7hPa ENE 0.9mph /  1.4km/h 4mph /  6.4km/h 55% 0in /  0.0mm 538 W/m2
11:12 64.9 °F /  18.3 °C 47.5 °F /  8.6 °C 30.3in /  1024.7hPa ENE 4mph /  6.4km/h 4mph /  6.4km/h 53% 0in /  0.0mm 547 W/m2
11:17 64.9 °F /  18.3 °C 46.9 °F /  8.3 °C 30.3in /  1024.4hPa East 2mph /  3.2km/h 4mph /  6.4km/h 52% 0in /  0.0mm 555 W/m2
11:22 65.5 °F /  18.6 °C 47.8 °F /  8.8 °C 30.3in /  1024.4hPa SE 0.9mph /  1.4km/h 4mph /  6.4km/h 53% 0in /  0.0mm 564 W/m2
11:27 65.7 °F /  18.7 °C 47.1 °F /  8.4 °C 30.3in /  1024.4hPa ENE 2.9mph /  4.7km/h 5mph /  8km/h 51% 0in /  0.0mm 573 W/m2
11:32 65.7 °F /  18.7 °C 47.1 °F /  8.4 °C 30.3in /  1024.4hPa NE 2mph /  3.2km/h 4mph /  6.4km/h 51% 0in /  0.0mm 580 W/m2
11:37 65.8 °F /  18.8 °C 46.8 °F /  8.2 °C 30.3in /  1024.4hPa NNE 2mph /  3.2km/h 4mph /  6.4km/h 50% 0in /  0.0mm 589 W/m2
11:42 66 °F /  18.9 °C 47.3 °F /  8.5 °C 30.3in /  1024.4hPa ENE 4.9mph /  7.9km/h 5mph /  8km/h 51% 0in /  0.0mm 594 W/m2
11:47 66 °F /  18.9 °C 47.3 °F /  8.5 °C 30.3in /  1024.4hPa ESE 2.9mph /  4.7km/h 4mph /  6.4km/h 51% 0in /  0.0mm 601 W/m2
11:52 66.7 °F /  19.3 °C 47.5 °F /  8.6 °C 30.3in /  1024.4hPa East 2mph /  3.2km/h 4mph /  6.4km/h 50% 0in /  0.0mm 608 W/m2
11:57 67.5 °F /  19.7 °C 48.2 °F /  9 °C 30.2in /  1024.0hPa East 2mph /  3.2km/h 4mph /  6.4km/h 50% 0in /  0.0mm 615 W/m2
12:02 67.5 °F /  19.7 °C 48.2 °F /  9 °C 30.2in /  1024.0hPa Calm   2mph /  3.2km/h 50% 0in /  0.0mm 621 W/m2
12:07 67.6 °F /  19.8 °C 47.8 °F /  8.8 °C 30.2in /  1024.0hPa SE 2mph /  3.2km/h 3mph /  4.8km/h 49% 0in /  0.0mm 626 W/m2
12:12 68.2 °F /  20.1 °C 47.7 °F /  8.7 °C 30.2in /  1024.0hPa ESE 4mph /  6.4km/h 6mph /  9.7km/h 48% 0in /  0.0mm 636 W/m2
12:17 68.4 °F /  20.2 °C 47.3 °F /  8.5 °C 30.2in /  1024.0hPa ESE 0.9mph /  1.4km/h 5mph /  8km/h 47% 0in /  0.0mm 638 W/m2
12:22 68.5 °F /  20.3 °C 48 °F /  8.9 °C 30.2in /  1024.0hPa ESE 0.9mph /  1.4km/h 7mph /  11.3km/h 48% 0in /  0.0mm 647 W/m2
12:27 69.3 °F /  20.7 °C 48.2 °F /  9 °C 30.2in /  1024.0hPa ESE 0.9mph /  1.4km/h 4mph /  6.4km/h 47% 0in /  0.0mm 650 W/m2
12:32 69.4 °F /  20.8 °C 47.8 °F /  8.8 °C 30.2in /  1023.7hPa ENE 7mph /  11.3km/h 7mph /  11.3km/h 46% 0in /  0.0mm 650 W/m2
12:38 70 °F /  21.1 °C 48.2 °F /  9 °C 30.2in /  1023.7hPa East 2mph /  3.2km/h 5mph /  8km/h 46% 0in /  0.0mm 659 W/m2
12:43 70 °F /  21.1 °C 47.7 °F /  8.7 °C 30.2in /  1023.7hPa NNE 4mph /  6.4km/h 7mph /  11.3km/h 45% 0in /  0.0mm 661 W/m2
12:48 70 °F /  21.1 °C 46.4 °F /  8 °C 30.2in /  1023.7hPa NNE 2mph /  3.2km/h 6mph /  9.7km/h 43% 0in /  0.0mm 664 W/m2
12:53 70 °F /  21.1 °C 47.1 °F /  8.4 °C 30.2in /  1023.7hPa NE 2mph /  3.2km/h 3mph /  4.8km/h 44% 0in /  0.0mm 670 W/m2
12:58 70.2 °F /  21.2 °C 45.3 °F /  7.4 °C 30.2in /  1023.4hPa ESE 2mph /  3.2km/h 6mph /  9.7km/h 41% 0in /  0.0mm 670 W/m2
13:03 70.5 °F /  21.4 °C 45.7 °F /  7.6 °C 30.2in /  1023.4hPa ENE 2.9mph /  4.7km/h 4mph /  6.4km/h 41% 0in /  0.0mm 675 W/m2
13:08 70.9 °F /  21.6 °C 47.3 °F /  8.5 °C 30.2in /  1023.4hPa ESE 2.9mph /  4.7km/h 3mph /  4.8km/h 43% 0in /  0.0mm 673 W/m2
13:13 71.2 °F /  21.8 °C 45.7 °F /  7.6 °C 30.2in /  1023.4hPa ESE 2mph /  3.2km/h 3mph /  4.8km/h 40% 0in /  0.0mm 679 W/m2
13:18 71.8 °F /  22.1 °C 45.5 °F /  7.5 °C 30.2in /  1023.4hPa East 2.9mph /  4.7km/h 5mph /  8km/h 39% 0in /  0.0mm 677 W/m2
13:23 72 °F /  22.2 °C 43.5 °F /  6.4 °C 30.2in /  1023.4hPa ESE 0.9mph /  1.4km/h 3mph /  4.8km/h 36% 0in /  0.0mm 680 W/m2
13:28 72.1 °F /  22.3 °C 43.7 °F /  6.5 °C 30.2in /  1023.0hPa ENE 2.9mph /  4.7km/h 7mph /  11.3km/h 36% 0in /  0.0mm 684 W/m2
13:33 72.5 °F /  22.5 °C 43.3 °F /  6.3 °C 30.2in /  1023.0hPa SE 0.9mph /  1.4km/h 1mph /  1.6km/h 35% 0in /  0.0mm 682 W/m2
13:38 73 °F /  22.8 °C 42.3 °F /  5.7 °C 30.2in /  1023.0hPa ESE 2.9mph /  4.7km/h 7mph /  11.3km/h 33% 0in /  0.0mm 684 W/m2
13:43 73.6 °F /  23.1 °C 40.3 °F /  4.6 °C 30.2in /  1023.0hPa East 2mph /  3.2km/h 2mph /  3.2km/h 30% 0in /  0.0mm 687 W/m2
13:48 73.4 °F /  23 °C 41.7 °F /  5.4 °C 30.2in /  1023.0hPa ENE 2mph /  3.2km/h 6mph /  9.7km/h 32% 0in /  0.0mm 680 W/m2
13:53 73 °F /  22.8 °C 40.6 °F /  4.8 °C 30.2in /  1023.0hPa ENE 2.9mph /  4.7km/h 5mph /  8km/h 31% 0in /  0.0mm 686 W/m2
13:58 73 °F /  22.8 °C 38.8 °F /  3.8 °C 30.2in /  1023.0hPa Calm   6mph /  9.7km/h 29% 0in /  0.0mm 682 W/m2
14:03 73 °F /  22.8 °C 39.7 °F /  4.3 °C 30.2in /  1022.7hPa NE 0.9mph /  1.4km/h 6mph /  9.7km/h 30% 0in /  0.0mm 680 W/m2
14:08 73.4 °F /  23 °C 40.1 °F /  4.5 °C 30.2in /  1022.7hPa WNW 2.9mph /  4.7km/h 4mph /  6.4km/h 30% 0in /  0.0mm 679 W/m2
14:13 73.2 °F /  22.9 °C 38.1 °F /  3.4 °C 30.2in /  1022.7hPa SE 2.9mph /  4.7km/h 7mph /  11.3km/h 28% 0in /  0.0mm 671 W/m2
14:18 73.2 °F /  22.9 °C 39.9 °F /  4.4 °C 30.2in /  1022.7hPa East 4mph /  6.4km/h 4mph /  6.4km/h 30% 0in /  0.0mm 670 W/m2
14:23 73.4 °F /  23 °C 40.1 °F /  4.5 °C 30.2in /  1022.7hPa ENE 0.9mph /  1.4km/h 4mph /  6.4km/h 30% 0in /  0.0mm 664 W/m2
14:28 73.8 °F /  23.2 °C 41.2 °F /  5.1 °C 30.2in /  1022.7hPa NE 4mph /  6.4km/h 5mph /  8km/h 31% 0in /  0.0mm 664 W/m2
14:33 73.8 °F /  23.2 °C 41.2 °F /  5.1 °C 30.2in /  1022.7hPa ESE 4mph /  6.4km/h 4mph /  6.4km/h 31% 0in /  0.0mm 661 W/m2
14:38 73.8 °F /  23.2 °C 40.5 °F /  4.7 °C 30.2in /  1022.7hPa South 2mph /  3.2km/h 3mph /  4.8km/h 30% 0in /  0.0mm 654 W/m2
14:43 73.8 °F /  23.2 °C 40.5 °F /  4.7 °C 30.2in /  1022.4hPa East 0.9mph /  1.4km/h 3mph /  4.8km/h 30% 0in /  0.0mm 649 W/m2
14:48 73.8 °F /  23.2 °C 40.5 °F /  4.7 °C 30.2in /  1022.4hPa West 0.9mph /  1.4km/h 4mph /  6.4km/h 30% 0in /  0.0mm 647 W/m2
14:53 73.8 °F /  23.2 °C 42.1 °F /  5.6 °C 30.2in /  1022.4hPa ENE 4mph /  6.4km/h 6mph /  9.7km/h 32% 0in /  0.0mm 638 W/m2
14:58 73.6 °F /  23.1 °C 41 °F /  5 °C 30.2in /  1022.4hPa NNE 2.9mph /  4.7km/h 5mph /  8km/h 31% 0in /  0.0mm 629 W/m2
15:03 73 °F /  22.8 °C 40.6 °F /  4.8 °C 30.2in /  1022.4hPa Calm   2mph /  3.2km/h 31% 0in /  0.0mm 624 W/m2
15:08 73.2 °F /  22.9 °C 40.8 °F /  4.9 °C 30.2in /  1022.4hPa West 2.9mph /  4.7km/h 4mph /  6.4km/h 31% 0in /  0.0mm 613 W/m2
15:13 73.2 °F /  22.9 °C 42.4 °F /  5.8 °C 30.2in /  1022.4hPa East 4mph /  6.4km/h 5mph /  8km/h 33% 0in /  0.0mm 613 W/m2
15:18 73.8 °F /  23.2 °C 41.2 °F /  5.1 °C 30.2in /  1022.4hPa South 0.9mph /  1.4km/h 2mph /  3.2km/h 31% 0in /  0.0mm 612 W/m2
15:23 73.9 °F /  23.3 °C 40.5 °F /  4.7 °C 30.2in /  1022.4hPa NNW 2mph /  3.2km/h 7mph /  11.3km/h 30% 0in /  0.0mm 601 W/m2
15:28 73.9 °F /  23.3 °C 41.4 °F /  5.2 °C 30.2in /  1022.0hPa ESE 2.9mph /  4.7km/h 4mph /  6.4km/h 31% 0in /  0.0mm 594 W/m2
15:33 74.3 °F /  23.5 °C 41.7 °F /  5.4 °C 30.2in /  1022.0hPa NE 2mph /  3.2km/h 4mph /  6.4km/h 31% 0in /  0.0mm 591 W/m2
15:38 74.5 °F /  23.6 °C 40.1 °F /  4.5 °C 30.2in /  1022.0hPa Calm   2mph /  3.2km/h 29% 0in /  0.0mm 585 W/m2
15:43 74.7 °F /  23.7 °C 41.2 °F /  5.1 °C 30.2in /  1022.0hPa ENE 2mph /  3.2km/h 4mph /  6.4km/h 30% 0in /  0.0mm 578 W/m2
15:48 74.7 °F /  23.7 °C 40.3 °F /  4.6 °C 30.2in /  1022.0hPa East 0.9mph /  1.4km/h 4mph /  6.4km/h 29% 0in /  0.0mm 568 W/m2
15:53 74.5 °F /  23.6 °C 40.1 °F /  4.5 °C 30.2in /  1022.0hPa NW 2mph /  3.2km/h 4mph /  6.4km/h 29% 0in /  0.0mm 559 W/m2
15:58 74.7 °F /  23.7 °C 42.8 °F /  6 °C 30.2in /  1022.0hPa East 2mph /  3.2km/h 2mph /  3.2km/h 32% 0in /  0.0mm 548 W/m2
16:03 74.8 °F /  23.8 °C 40.5 °F /  4.7 °C 30.2in /  1021.7hPa ESE 0.9mph /  1.4km/h 3mph /  4.8km/h 29% 0in /  0.0mm 540 W/m2
16:08 74.8 °F /  23.8 °C 40.5 °F /  4.7 °C 30.2in /  1021.7hPa ENE 2mph /  3.2km/h 9mph /  14.5km/h 29% 0in /  0.0mm 533 W/m2
16:13 74.8 °F /  23.8 °C 42.3 °F /  5.7 °C 30.2in /  1021.7hPa North 2.9mph /  4.7km/h 3mph /  4.8km/h 31% 0in /  0.0mm 517 W/m2
16:18 75.2 °F /  24 °C 39.9 °F /  4.4 °C 30.2in /  1021.7hPa East 2mph /  3.2km/h 9mph /  14.5km/h 28% 0in /  0.0mm 506 W/m2
16:23 75.2 °F /  24 °C 41.7 °F /  5.4 °C 30.2in /  1021.7hPa Calm   1mph /  1.6km/h 30% 0in /  0.0mm 497 W/m2
16:28 75.4 °F /  24.1 °C 43.5 °F /  6.4 °C 30.2in /  1021.7hPa North 0.9mph /  1.4km/h 6mph /  9.7km/h 32% 0in /  0.0mm 475 W/m2
16:33 75.7 °F /  24.3 °C 42.1 °F /  5.6 °C 30.2in /  1021.7hPa SE 4mph /  6.4km/h 4mph /  6.4km/h 30% 0in /  0.0mm 468 W/m2
16:38 75.7 °F /  24.3 °C 41.2 °F /  5.1 °C 30.2in /  1021.7hPa East 2mph /  3.2km/h 5mph /  8km/h 29% 0in /  0.0mm 459 W/m2
16:43 75.4 °F /  24.1 °C 40.1 °F /  4.5 °C 30.2in /  1021.3hPa East 2.9mph /  4.7km/h 5mph /  8km/h 28% 0in /  0.0mm 448 W/m2
16:48 74.8 °F /  23.8 °C 40.5 °F /  4.7 °C 30.2in /  1021.3hPa ENE 0.9mph /  1.4km/h 2mph /  3.2km/h 29% 0in /  0.0mm 436 W/m2
16:54 75 °F /  23.9 °C 39.7 °F /  4.3 °C 30.2in /  1021.3hPa Calm   2mph /  3.2km/h 28% 0in /  0.0mm 432 W/m2
16:59 75.6 °F /  24.2 °C 41 °F /  5 °C 30.2in /  1021.3hPa ENE 2mph /  3.2km/h 5mph /  8km/h 29% 0in /  0.0mm 417 W/m2
17:04 75.6 °F /  24.2 °C 40.1 °F /  4.5 °C 30.2in /  1021.3hPa West 2mph /  3.2km/h 7mph /  11.3km/h 28% 0in /  0.0mm 411 W/m2
17:09 75.4 °F /  24.1 °C 39 °F /  3.9 °C 30.2in /  1021.3hPa North 0.9mph /  1.4km/h 3mph /  4.8km/h 27% 0in /  0.0mm 399 W/m2
17:14 75 °F /  23.9 °C 39.7 °F /  4.3 °C 30.2in /  1021.3hPa ESE 2.9mph /  4.7km/h 5mph /  8km/h 28% 0in /  0.0mm 374 W/m2
17:19 74.8 °F /  23.8 °C 40.5 °F /  4.7 °C 30.2in /  1021.3hPa ESE 2mph /  3.2km/h 4mph /  6.4km/h 29% 0in /  0.0mm 369 W/m2
17:24 75 °F /  23.9 °C 40.6 °F /  4.8 °C 30.2in /  1021.3hPa ESE 2mph /  3.2km/h 4mph /  6.4km/h 29% 0in /  0.0mm 360 W/m2
17:29 75 °F /  23.9 °C 40.6 °F /  4.8 °C 30.2in /  1021.3hPa Calm   2mph /  3.2km/h 29% 0in /  0.0mm 350 W/m2
17:34 75.6 °F /  24.2 °C 40.1 °F /  4.5 °C 30.2in /  1021.3hPa Calm   1mph /  1.6km/h 28% 0in /  0.0mm 341 W/m2
17:39 75.9 °F /  24.4 °C 40.5 °F /  4.7 °C 30.2in /  1021.3hPa West 2mph /  3.2km/h 2mph /  3.2km/h 28% 0in /  0.0mm 334 W/m2
17:44 75.9 °F /  24.4 °C 39.6 °F /  4.2 °C 30.2in /  1021.0hPa NE 0.9mph /  1.4km/h 1mph /  1.6km/h 27% 0in /  0.0mm 306 W/m2
17:49 75.7 °F /  24.3 °C 39.4 °F /  4.1 °C 30.2in /  1021.0hPa Calm   1mph /  1.6km/h 27% 0in /  0.0mm 301 W/m2
17:54 75.7 °F /  24.3 °C 41.2 °F /  5.1 °C 30.2in /  1021.3hPa Calm   3mph /  4.8km/h 29% 0in /  0.0mm 290 W/m2
17:59 75.7 °F /  24.3 °C 39.4 °F /  4.1 °C 30.2in /  1021.3hPa East 0.9mph /  1.4km/h 2mph /  3.2km/h 27% 0in /  0.0mm 79 W/m2
18:04 75.6 °F /  24.2 °C 41 °F /  5 °C 30.2in /  1021.0hPa SSE 0.9mph /  1.4km/h 2mph /  3.2km/h 29% 0in /  0.0mm 255 W/m2
18:09 75.2 °F /  24 °C 40.8 °F /  4.9 °C 30.2in /  1021.0hPa East 0.9mph /  1.4km/h 3mph /  4.8km/h 29% 0in /  0.0mm 255 W/m2
18:14 75 °F /  23.9 °C 39.7 °F /  4.3 °C 30.2in /  1021.0hPa NE 2.9mph /  4.7km/h 4mph /  6.4km/h 28% 0in /  0.0mm 246 W/m2
18:19 75 °F /  23.9 °C 39.7 °F /  4.3 °C 30.2in /  1021.0hPa North 2mph /  3.2km/h 2mph /  3.2km/h 28% 0in /  0.0mm 236 W/m2
18:24 75.4 °F /  24.1 °C 40.1 °F /  4.5 °C 30.2in /  1021.0hPa NNW 0.9mph /  1.4km/h 4mph /  6.4km/h 28% 0in /  0.0mm 216 W/m2
18:29 75.2 °F /  24 °C 39.9 °F /  4.4 °C 30.2in /  1021.0hPa NE 0.9mph /  1.4km/h 4mph /  6.4km/h 28% 0in /  0.0mm 204 W/m2
18:34 75.2 °F /  24 °C 38.8 °F /  3.8 °C 30.2in /  1021.0hPa NE 0.9mph /  1.4km/h 2mph /  3.2km/h 27% 0in /  0.0mm 190 W/m2
18:39 75.4 °F /  24.1 °C 40.1 °F /  4.5 °C 30.2in /  1021.0hPa NNW 0.9mph /  1.4km/h 3mph /  4.8km/h 28% 0in /  0.0mm 171 W/m2
18:44 75.4 °F /  24.1 °C 40.1 °F /  4.5 °C 30.2in /  1021.0hPa Calm   2mph /  3.2km/h 28% 0in /  0.0mm 158 W/m2
18:49 75.2 °F /  24 °C 38.8 °F /  3.8 °C 30.2in /  1021.0hPa NNW 0.9mph /  1.4km/h 2mph /  3.2km/h 27% 0in /  0.0mm 144 W/m2
18:55 75.2 °F /  24 °C 39.9 °F /  4.4 °C 30.2in /  1021.0hPa NE 0.9mph /  1.4km/h 2mph /  3.2km/h 28% 0in /  0.0mm 127 W/m2
19:00 75.2 °F /  24 °C 39.9 °F /  4.4 °C 30.2in /  1021.0hPa SW 0.9mph /  1.4km/h 3mph /  4.8km/h 28% 0in /  0.0mm 113 W/m2
19:05 75 °F /  23.9 °C 38.8 °F /  3.8 °C 30.2in /  1021.0hPa NW 2mph /  3.2km/h 3mph /  4.8km/h 27% 0in /  0.0mm 100 W/m2
Juneau County Weather
Compliments of Weather Underground - 4 mb